Time;durP1;ratioP1;P1;durP2;ratioP2;P2;SDS_P1;SDS_P2;PMS_P1;PMS_P2;Temp;Humidity;BMP_temperature;BMP_pressure;BME280_temperature;BME280_humidity;BME280_pressure;Samples;Min_cycle;Max_cycle;Signal;HPM_P1;HPM_P2
2021/05/08 00:00:33;;;;;;;13.40;6.60;;;2.20;99.90;;;;;;5091498;28;20181;-60
2021/05/08 00:03:00;;;;;;;10.98;6.43;;;2.20;99.90;;;;;;5092628;28;20165;-59
2021/05/08 00:05:26;;;;;;;14.02;7.05;;;2.20;99.90;;;;;;5092505;28;20189;-60
2021/05/08 00:07:53;;;;;;;11.13;6.90;;;2.20;99.90;;;;;;5092179;28;20169;-59
2021/05/08 00:10:19;;;;;;;13.60;6.97;;;2.30;99.90;;;;;;5090349;28;20247;-59
2021/05/08 00:12:45;;;;;;;12.00;7.07;;;2.30;99.90;;;;;;5091028;28;20221;-59
2021/05/08 00:15:12;;;;;;;13.40;7.30;;;2.30;99.90;;;;;;5092513;28;20170;-58
2021/05/08 00:17:38;;;;;;;10.73;6.60;;;2.20;99.90;;;;;;5092526;28;20193;-59
2021/05/08 00:20:08;;;;;;;9.68;6.47;;;2.10;99.90;;;;;;5093014;28;20194;-58
2021/05/08 00:22:35;;;;;;;13.38;7.03;;;2.10;99.90;;;;;;5095314;28;20181;-59
2021/05/08 00:25:01;;;;;;;13.93;7.03;;;2.20;99.90;;;;;;5096179;28;20181;-59
2021/05/08 00:27:27;;;;;;;11.13;7.00;;;2.10;99.90;;;;;;5096510;28;20174;-59
2021/05/08 00:29:53;;;;;;;14.63;6.97;;;2.10;99.90;;;;;;5095951;28;20177;-59
2021/05/08 00:32:19;;;;;;;10.45;6.55;;;2.00;99.90;;;;;;5095731;28;20227;-59
2021/05/08 00:34:45;;;;;;;13.32;7.47;;;2.00;99.90;;;;;;5094997;28;20221;-59
2021/05/08 00:37:11;;;;;;;12.60;7.75;;;2.00;99.90;;;;;;5095850;28;20539;-59
2021/05/08 00:39:37;;;;;;;12.27;7.38;;;2.00;99.90;;;;;;5095524;28;20196;-59
2021/05/08 00:42:04;;;;;;;12.98;7.30;;;2.00;99.90;;;;;;5095702;28;20184;-59
2021/05/08 00:44:30;;;;;;;10.13;6.50;;;2.10;99.90;;;;;;5095060;28;20622;-58
2021/05/08 00:46:56;;;;;;;14.32;7.55;;;2.10;99.90;;;;;;5095787;28;20176;-59
2021/05/08 00:49:25;;;;;;;13.10;7.30;;;2.00;99.90;;;;;;5077394;28;20536;-58
2021/05/08 00:51:51;;;;;;;14.23;7.70;;;2.00;99.90;;;;;;5095639;28;20193;-59
2021/05/08 00:54:17;;;;;;;13.02;7.65;;;2.00;99.90;;;;;;5095355;28;20177;-59
2021/05/08 00:56:43;;;;;;;13.45;7.97;;;2.10;99.90;;;;;;5094976;28;20177;-59
2021/05/08 00:59:09;;;;;;;14.60;7.55;;;2.00;99.90;;;;;;5093403;28;20165;-59
2021/05/08 01:01:35;;;;;;;13.15;7.05;;;1.90;99.90;;;;;;5076711;28;20629;-59
2021/05/08 01:04:02;;;;;;;14.63;7.35;;;1.80;99.90;;;;;;5095251;28;20187;-59
2021/05/08 01:06:28;;;;;;;11.40;6.93;;;1.80;99.90;;;;;;5093688;28;20181;-60
2021/05/08 01:08:54;;;;;;;14.18;7.80;;;1.80;99.90;;;;;;5095175;28;20185;-59
2021/05/08 01:11:20;;;;;;;12.50;7.40;;;1.90;99.90;;;;;;5095035;28;20199;-58
2021/05/08 01:13:46;;;;;;;14.05;8.18;;;1.90;99.90;;;;;;5095184;28;20653;-59
2021/05/08 01:16:12;;;;;;;13.38;7.97;;;1.80;99.90;;;;;;5076567;28;20176;-59
2021/05/08 01:18:38;;;;;;;14.77;8.20;;;1.70;99.90;;;;;;5093555;28;20543;-58
2021/05/08 01:21:11;;;;;;;12.30;7.97;;;1.70;99.90;;;;;;5093616;28;20203;-58
2021/05/08 01:23:38;;;;;;;15.20;9.02;;;1.70;99.90;;;;;;5093673;28;20224;-58
2021/05/08 01:26:04;;;;;;;15.25;8.35;;;1.80;99.90;;;;;;5094095;28;20185;-58
2021/05/08 01:28:30;;;;;;;13.98;7.85;;;1.70;99.90;;;;;;5095082;28;20162;-60
2021/05/08 01:30:56;;;;;;;12.95;7.63;;;1.70;99.90;;;;;;5094377;28;20181;-58
2021/05/08 01:33:22;;;;;;;16.73;8.18;;;1.60;99.90;;;;;;5094521;28;20588;-56
2021/05/08 01:35:48;;;;;;;13.35;7.45;;;1.70;99.90;;;;;;5093998;28;20212;-59
2021/05/08 01:38:14;;;;;;;14.93;8.32;;;1.50;99.90;;;;;;5094128;28;20180;-59
2021/05/08 01:40:41;;;;;;;13.02;7.75;;;1.50;99.90;;;;;;5094614;28;20180;-59
2021/05/08 01:43:07;;;;;;;18.58;8.82;;;1.50;99.90;;;;;;5093801;28;20177;-59
2021/05/08 01:45:33;;;;;;;15.15;8.43;;;1.50;99.90;;;;;;5094823;28;20176;-58
2021/05/08 01:48:00;;;;;;;17.88;7.57;;;1.50;99.90;;;;;;5093397;28;20644;-58
2021/05/08 01:50:26;;;;;;;12.98;7.55;;;1.50;99.90;;;;;;5093166;28;20567;-60
2021/05/08 01:52:53;;;;;;;20.80;8.15;;;1.50;99.90;;;;;;5094297;28;20204;-59
2021/05/08 01:55:20;;;;;;;16.23;8.43;;;1.40;99.90;;;;;;5092316;28;20169;-59
2021/05/08 01:57:48;;;;;;;16.38;8.43;;;1.40;99.90;;;;;;5093626;28;20548;-59
2021/05/08 02:00:22;;;;;;;13.30;8.05;;;1.40;99.90;;;;;;5093277;28;20173;-58
2021/05/08 02:02:49;;;;;;;16.88;8.85;;;1.50;99.90;;;;;;5092856;28;20180;-58
2021/05/08 02:05:15;;;;;;;14.90;7.90;;;1.50;99.90;;;;;;5094095;28;20181;-57
2021/05/08 02:07:41;;;;;;;13.82;7.93;;;1.60;99.90;;;;;;5092988;28;20173;-57
2021/05/08 02:10:09;;;;;;;14.82;7.80;;;1.60;99.90;;;;;;5093444;28;20536;-57
2021/05/08 02:12:38;;;;;;;15.38;7.78;;;1.60;99.90;;;;;;5093989;28;20236;-60
2021/05/08 02:15:12;;;;;;;11.57;7.38;;;1.60;99.90;;;;;;5092265;28;20645;-60
2021/05/08 02:17:39;;;;;;;12.82;7.55;;;1.60;99.90;;;;;;5094080;28;20180;-58
2021/05/08 02:20:09;;;;;;;13.48;7.35;;;1.60;99.90;;;;;;5092845;28;20177;-58
2021/05/08 02:22:35;;;;;;;11.98;7.63;;;1.60;99.90;;;;;;5093940;28;20641;-58
2021/05/08 02:25:02;;;;;;;13.90;7.28;;;1.60;99.90;;;;;;5093625;28;20196;-59
2021/05/08 02:27:28;;;;;;;13.63;7.55;;;1.60;99.90;;;;;;5092626;28;20189;-59
2021/05/08 02:29:54;;;;;;;19.63;8.43;;;1.50;99.90;;;;;;5092771;28;20648;-59
2021/05/08 02:32:21;;;;;;;14.20;7.45;;;1.40;99.90;;;;;;5093872;28;20215;-59
2021/05/08 02:34:47;;;;;;;14.45;6.80;;;1.40;99.90;;;;;;5093325;28;20677;-59
2021/05/08 02:37:13;;;;;;;14.32;8.13;;;1.40;99.90;;;;;;5093720;28;20545;-59
2021/05/08 02:39:39;;;;;;;14.75;7.50;;;1.40;99.90;;;;;;5092545;28;20182;-59
2021/05/08 02:42:05;;;;;;;14.52;7.82;;;1.40;99.90;;;;;;5092754;28;20188;-58
2021/05/08 02:44:31;;;;;;;11.73;6.80;;;1.40;99.90;;;;;;5093496;28;20172;-58
2021/05/08 02:46:57;;;;;;;16.50;8.25;;;1.30;99.90;;;;;;5092743;28;20173;-59
2021/05/08 02:49:23;;;;;;;15.38;8.15;;;1.40;99.90;;;;;;5092433;28;20645;-59
2021/05/08 02:51:49;;;;;;;13.23;7.97;;;1.40;99.90;;;;;;5091989;28;20205;-59
2021/05/08 02:54:16;;;;;;;12.70;7.13;;;1.30;99.90;;;;;;5092644;28;20184;-59
2021/05/08 02:56:42;;;;;;;14.85;8.35;;;1.30;99.90;;;;;;5093402;28;20184;-59
2021/05/08 02:59:08;;;;;;;14.27;8.05;;;1.30;99.90;;;;;;5093135;28;20173;-59
2021/05/08 03:01:34;;;;;;;14.23;7.80;;;1.30;99.90;;;;;;5092983;28;20536;-59
2021/05/08 03:04:00;;;;;;;13.52;8.02;;;1.20;99.90;;;;;;5092717;28;20173;-58
2021/05/08 03:06:26;;;;;;;15.65;8.50;;;1.20;99.90;;;;;;5092844;28;20181;-57
2021/05/08 03:08:52;;;;;;;15.63;8.45;;;1.20;99.90;;;;;;5092440;28;20192;-59
2021/05/08 03:11:18;;;;;;;13.60;8.05;;;1.20;99.90;;;;;;5093154;28;20161;-59
2021/05/08 03:13:45;;;;;;;13.23;7.55;;;1.20;99.90;;;;;;5091683;28;20209;-59
2021/05/08 03:16:11;;;;;;;14.38;8.73;;;1.20;99.90;;;;;;5091544;28;20181;-58
2021/05/08 03:18:37;;;;;;;14.52;8.63;;;1.20;99.90;;;;;;5093191;28;20173;-59
2021/05/08 03:21:03;;;;;;;15.48;8.43;;;1.20;99.90;;;;;;5092584;28;20197;-58
2021/05/08 03:23:29;;;;;;;15.57;9.18;;;1.20;99.90;;;;;;5092030;28;20243;-59
2021/05/08 03:25:55;;;;;;;15.50;9.23;;;1.20;99.90;;;;;;5092646;28;20173;-60
2021/05/08 03:28:21;;;;;;;15.82;9.38;;;1.20;99.90;;;;;;5092901;28;20204;-58
2021/05/08 03:30:47;;;;;;;16.83;8.80;;;1.20;99.90;;;;;;5092619;28;20908;-59
2021/05/08 03:33:13;;;;;;;16.52;9.45;;;1.20;99.90;;;;;;5092570;28;20212;-59
2021/05/08 03:35:39;;;;;;;14.02;8.43;;;1.20;99.90;;;;;;5090970;28;20576;-58
2021/05/08 03:38:05;;;;;;;16.10;8.50;;;1.20;99.90;;;;;;5092428;28;20181;-58
2021/05/08 03:40:32;;;;;;;13.40;7.82;;;1.20;99.90;;;;;;5091301;28;20181;-58
2021/05/08 03:42:58;;;;;;;18.13;8.70;;;1.30;99.90;;;;;;5092796;28;20625;-58
2021/05/08 03:45:24;;;;;;;16.50;8.65;;;1.40;99.90;;;;;;5091964;28;20174;-59
2021/05/08 03:47:50;;;;;;;14.77;8.52;;;1.40;99.90;;;;;;5092178;28;20180;-58
2021/05/08 03:50:16;;;;;;;16.58;9.23;;;1.50;99.90;;;;;;5092638;28;20173;-58
2021/05/08 03:52:42;;;;;;;15.02;8.48;;;1.60;99.90;;;;;;5092108;28;20228;-58
2021/05/08 03:55:08;;;;;;;18.85;8.40;;;1.70;99.90;;;;;;5094568;28;20184;-58
2021/05/08 03:57:34;;;;;;;14.32;8.10;;;1.70;99.90;;;;;;5098495;28;20177;-58
2021/05/08 04:00:00;;;;;;;14.63;8.82;;;1.70;99.90;;;;;;5099151;28;20192;-58
2021/05/08 04:02:27;;;;;;;19.25;9.85;;;1.90;99.90;;;;;;5099403;28;20165;-59
2021/05/08 04:04:53;;;;;;;16.25;9.18;;;2.00;99.90;;;;;;5099006;28;20165;-58
2021/05/08 04:07:19;;;;;;;16.65;9.02;;;2.10;99.90;;;;;;5098480;28;20184;-59
2021/05/08 04:09:45;;;;;;;20.13;10.43;;;2.20;99.90;;;;;;5098786;28;20633;-58
2021/05/08 04:12:11;;;;;;;20.08;10.30;;;2.30;99.90;;;;;;5099216;28;20621;-59
2021/05/08 04:14:37;;;;;;;17.48;9.00;;;2.30;99.90;;;;;;5099170;28;20553;-56
2021/05/08 04:17:03;;;;;;;18.23;9.85;;;2.40;99.90;;;;;;5098168;28;20177;-59
2021/05/08 04:19:29;;;;;;;16.13;9.18;;;2.50;99.90;;;;;;5098319;28;20181;-58
2021/05/08 04:21:55;;;;;;;18.45;9.93;;;2.60;99.90;;;;;;5097499;28;20566;-58
2021/05/08 04:24:21;;;;;;;14.18;8.75;;;2.70;99.90;;;;;;5098683;28;20195;-58
2021/05/08 04:26:48;;;;;;;16.17;9.52;;;2.80;99.90;;;;;;5098535;28;20192;-60
2021/05/08 04:29:14;;;;;;;18.58;8.80;;;2.90;99.90;;;;;;5098236;28;20189;-57
2021/05/08 04:31:40;;;;;;;14.82;6.38;;;3.00;99.90;;;;;;5098985;28;20169;-59
2021/05/08 04:34:06;;;;;;;14.10;8.48;;;3.10;99.90;;;;;;5097194;28;21869;-59
2021/05/08 04:36:32;;;;;;;15.80;8.13;;;3.20;99.90;;;;;;5097868;28;20193;-58
2021/05/08 04:38:58;;;;;;;9.80;4.97;;;3.50;99.90;;;;;;5096799;28;20664;-59
2021/05/08 04:41:24;;;;;;;7.85;4.70;;;3.80;99.90;;;;;;5096995;28;20251;-59
2021/05/08 04:43:50;;;;;;;9.43;5.13;;;4.00;99.90;;;;;;5098924;28;20184;-59
2021/05/08 04:46:17;;;;;;;12.65;5.15;;;4.20;99.90;;;;;;5098590;28;20196;-59
2021/05/08 04:48:43;;;;;;;9.55;4.80;;;4.20;99.90;;;;;;5098097;28;20243;-59
2021/05/08 04:51:09;;;;;;;7.90;4.57;;;4.20;99.90;;;;;;5097821;28;20181;-58
2021/05/08 04:53:35;;;;;;;7.28;4.35;;;4.30;99.90;;;;;;5098817;28;20211;-59
2021/05/08 04:56:01;;;;;;;13.18;4.35;;;4.40;99.90;;;;;;5098342;28;20173;-59
2021/05/08 04:58:27;;;;;;;9.05;4.30;;;4.50;99.90;;;;;;5098513;28;20177;-58
2021/05/08 05:00:54;;;;;;;7.70;4.15;;;4.50;99.90;;;;;;5097928;28;20165;-59
2021/05/08 05:03:20;;;;;;;6.78;4.32;;;4.50;99.90;;;;;;5098248;28;20660;-60
2021/05/08 05:05:46;;;;;;;6.43;3.85;;;4.50;99.90;;;;;;5097445;28;20181;-60
2021/05/08 05:08:18;;;;;;;5.85;3.58;;;4.50;99.90;;;;;;5094508;28;20173;-59
2021/05/08 05:10:48;;;;;;;9.27;4.10;;;4.60;99.90;;;;;;5094435;28;20157;-57
2021/05/08 05:13:14;;;;;;;7.15;3.50;;;4.70;99.90;;;;;;5095288;28;20260;-59
2021/05/08 05:15:40;;;;;;;8.32;3.85;;;4.80;99.90;;;;;;5095430;28;20165;-58
2021/05/08 05:18:06;;;;;;;11.25;3.72;;;4.90;99.90;;;;;;5095168;28;20532;-58
2021/05/08 05:20:32;;;;;;;6.22;3.72;;;5.00;99.90;;;;;;5093188;28;20297;-58
2021/05/08 05:22:59;;;;;;;6.43;3.95;;;5.10;99.90;;;;;;5074699;28;20186;-59
2021/05/08 05:25:25;;;;;;;9.27;3.30;;;5.20;99.90;;;;;;5074863;28;20189;-59
2021/05/08 05:27:51;;;;;;;4.97;3.42;;;5.30;99.90;;;;;;5088379;28;20181;-59
2021/05/08 05:30:17;;;;;;;11.15;4.03;;;5.50;99.90;;;;;;5094933;28;20183;-59
2021/05/08 05:32:43;;;;;;;5.88;3.35;;;5.60;99.90;;;;;;5094143;28;20205;-59
2021/05/08 05:35:10;;;;;;;7.43;4.10;;;5.70;99.90;;;;;;5094727;28;20232;-60
2021/05/08 05:37:36;;;;;;;6.38;3.60;;;5.90;99.90;;;;;;5095134;28;20191;-60
2021/05/08 05:40:03;;;;;;;7.38;3.60;;;6.10;99.90;;;;;;5094500;28;20177;-59
2021/05/08 05:42:29;;;;;;;5.85;3.55;;;6.20;99.90;;;;;;5093399;28;20618;-60
2021/05/08 05:44:55;;;;;;;6.78;3.53;;;6.50;99.90;;;;;;5094472;28;20177;-60
2021/05/08 05:47:21;;;;;;;12.63;3.63;;;6.80;99.90;;;;;;5093898;28;20539;-59
2021/05/08 05:49:51;;;;;;;6.93;3.55;;;6.90;99.90;;;;;;5094799;28;20622;-59
2021/05/08 05:52:18;;;;;;;5.28;3.20;;;6.90;99.90;;;;;;5093897;28;20178;-59
2021/05/08 05:54:48;;;;;;;6.75;3.15;;;6.80;99.90;;;;;;5094413;28;20174;-58
2021/05/08 05:57:14;;;;;;;8.23;3.40;;;6.90;99.90;;;;;;5094235;28;20174;-59
2021/05/08 05:59:40;;;;;;;6.28;3.03;;;6.80;99.90;;;;;;5094315;28;20177;-59
2021/05/08 06:02:07;;;;;;;12.38;3.63;;;6.80;99.90;;;;;;5094310;28;20174;-59
2021/05/08 06:04:33;;;;;;;7.00;2.90;;;6.80;99.90;;;;;;5093612;28;20676;-59
2021/05/08 06:06:59;;;;;;;9.68;3.22;;;6.90;99.90;;;;;;5093992;28;20177;-59
2021/05/08 06:09:26;;;;;;;5.60;3.10;;;7.10;99.90;;;;;;5093706;28;20181;-58
2021/05/08 06:11:54;;;;;;;6.82;3.03;;;7.30;99.90;;;;;;5094313;28;20181;-59
2021/05/08 06:14:20;;;;;;;10.35;3.00;;;7.60;99.90;;;;;;5092514;28;20201;-59
2021/05/08 06:16:46;;;;;;;13.25;3.05;;;7.90;99.90;;;;;;5093543;28;20169;-59
2021/05/08 06:19:12;;;;;;;6.50;2.22;;;8.30;99.90;;;;;;5092452;28;20520;-59
2021/05/08 06:21:39;;;;;;;6.70;2.70;;;8.50;99.90;;;;;;5094058;28;20189;-60
2021/05/08 06:24:11;;;;;;;6.85;2.63;;;8.70;99.90;;;;;;5093684;28;20176;-59
2021/05/08 06:26:37;;;;;;;11.07;2.83;;;9.00;99.90;;;;;;5092519;28;20178;-59
2021/05/08 06:29:04;;;;;;;9.15;3.53;;;9.20;99.90;;;;;;5093766;28;20634;-59
2021/05/08 06:31:31;;;;;;;6.38;2.50;;;9.30;99.90;;;;;;5093474;28;20173;-60
2021/05/08 06:33:57;;;;;;;5.22;2.22;;;9.50;99.90;;;;;;5075826;28;20216;-59
2021/05/08 06:36:23;;;;;;;10.95;2.38;;;9.40;99.90;;;;;;5092755;28;20190;-59
2021/05/08 06:38:49;;;;;;;7.78;2.28;;;9.10;99.90;;;;;;5093514;28;20181;-59
2021/05/08 06:41:15;;;;;;;8.60;2.38;;;9.10;99.90;;;;;;5090984;28;20200;-60
2021/05/08 06:43:41;;;;;;;8.93;2.35;;;9.30;99.90;;;;;;5092976;28;20185;-60
2021/05/08 06:46:10;;;;;;;13.43;2.13;;;9.20;99.90;;;;;;5090852;28;20192;-59
2021/05/08 06:48:36;;;;;;;7.88;2.35;;;9.20;99.90;;;;;;5092562;28;20200;-59
2021/05/08 06:51:03;;;;;;;14.35;2.67;;;9.30;99.90;;;;;;5092182;28;20184;-59
2021/05/08 06:53:29;;;;;;;11.63;3.10;;;9.60;99.90;;;;;;5092228;28;20208;-60
2021/05/08 06:55:56;;;;;;;11.70;2.10;;;10.00;99.90;;;;;;5092591;28;20653;-58
2021/05/08 06:58:22;;;;;;;9.52;2.13;;;10.10;99.90;;;;;;5092428;28;20181;-58
2021/05/08 07:00:48;;;;;;;17.05;2.67;;;10.30;99.90;;;;;;5092334;28;20170;-59
2021/05/08 07:03:14;;;;;;;9.50;2.25;;;10.30;99.90;;;;;;5092050;28;20173;-58
2021/05/08 07:05:40;;;;;;;8.48;2.65;;;10.00;99.90;;;;;;5092873;28;20180;-60
2021/05/08 07:08:08;;;;;;;10.60;2.17;;;9.20;99.90;;;;;;5088798;28;20214;-60
2021/05/08 07:10:51;;;;;;;11.20;3.47;;;9.20;99.90;;;;;;5091778;28;20176;-60
2021/05/08 07:13:17;;;;;;;13.30;2.28;;;9.20;99.90;;;;;;5092404;28;20232;-59
2021/05/08 07:15:43;;;;;;;6.10;1.88;;;8.80;99.90;;;;;;5090800;28;20192;-59
2021/05/08 07:18:09;;;;;;;8.15;2.17;;;9.10;99.90;;;;;;5092002;28;20196;-58
2021/05/08 07:20:36;;;;;;;7.18;2.25;;;9.70;99.90;;;;;;5092213;28;20197;-59
2021/05/08 07:23:03;;;;;;;12.77;2.65;;;9.80;99.90;;;;;;5091114;28;20189;-60
2021/05/08 07:25:29;;;;;;;13.00;2.63;;;9.30;99.90;;;;;;5091403;28;20176;-59
2021/05/08 07:28:11;;;;;;;11.23;2.47;;;9.00;99.90;;;;;;5091938;28;20640;-59
2021/05/08 07:30:38;;;;;;;9.27;2.20;;;9.10;99.90;;;;;;5091247;28;20173;-59
2021/05/08 07:33:04;;;;;;;22.80;2.90;;;9.10;99.90;;;;;;5092004;28;20201;-59
2021/05/08 07:35:30;;;;;;;6.55;2.20;;;9.10;99.90;;;;;;5092502;28;20217;-59
2021/05/08 07:37:56;;;;;;;11.82;2.40;;;8.90;99.90;;;;;;5092910;28;20180;-59
2021/05/08 07:40:22;;;;;;;12.98;2.40;;;8.90;99.90;;;;;;5090558;28;20178;-59
2021/05/08 07:42:49;;;;;;;9.18;2.80;;;9.20;99.90;;;;;;5091816;28;20184;-59
2021/05/08 07:45:15;;;;;;;9.25;2.53;;;9.20;99.90;;;;;;5091173;28;20177;-59
2021/05/08 07:47:41;;;;;;;14.07;2.95;;;9.20;99.90;;;;;;5090879;28;20524;-58
2021/05/08 07:50:08;;;;;;;13.85;2.95;;;9.40;99.90;;;;;;5091470;28;20193;-60
2021/05/08 07:52:34;;;;;;;10.88;2.60;;;9.80;99.90;;;;;;5092362;28;20180;-58
2021/05/08 07:55:00;;;;;;;10.95;3.10;;;10.40;99.90;;;;;;5092278;28;20177;-60
2021/05/08 07:57:27;;;;;;;11.38;2.38;;;10.50;99.90;;;;;;5091653;28;20645;-60
2021/05/08 07:59:53;;;;;;;11.10;2.50;;;10.60;99.90;;;;;;5095466;28;20173;-59
2021/05/08 08:02:19;;;;;;;10.23;2.60;;;9.90;99.90;;;;;;5091406;28;20181;-59
2021/05/08 08:04:45;;;;;;;7.00;2.42;;;9.60;99.90;;;;;;5089942;28;20193;-59
2021/05/08 08:07:11;;;;;;;9.45;2.22;;;9.70;99.90;;;;;;5091741;28;20567;-59
2021/05/08 08:09:37;;;;;;;13.23;2.30;;;9.90;99.90;;;;;;5091951;28;20185;-59
2021/05/08 08:12:04;;;;;;;7.30;3.03;;;9.60;99.90;;;;;;5091819;28;20200;-59
2021/05/08 08:14:30;;;;;;;14.32;2.92;;;9.40;99.90;;;;;;5091790;28;20251;-59
2021/05/08 08:16:56;;;;;;;16.42;2.53;;;10.00;99.90;;;;;;5092025;28;20181;-59
2021/05/08 08:19:22;;;;;;;8.23;2.50;;;10.70;99.90;;;;;;5090936;28;20192;-58
2021/05/08 08:21:48;;;;;;;9.88;2.35;;;11.00;99.90;;;;;;5089347;28;20683;-60
2021/05/08 08:24:14;;;;;;;15.77;2.58;;;10.60;99.90;;;;;;5090127;28;20173;-59
2021/05/08 08:26:40;;;;;;;12.02;2.90;;;10.40;99.90;;;;;;5089931;28;20174;-60
2021/05/08 08:29:06;;;;;;;7.22;2.47;;;10.30;99.90;;;;;;5091227;28;20200;-60
2021/05/08 08:31:32;;;;;;;11.40;2.40;;;10.00;99.90;;;;;;5091215;28;20547;-59
2021/05/08 08:33:59;;;;;;;7.90;2.47;;;9.70;99.90;;;;;;5090376;28;20217;-59
2021/05/08 08:36:25;;;;;;;14.32;2.58;;;9.80;99.90;;;;;;5093518;28;20543;-59
2021/05/08 08:38:51;;;;;;;9.15;2.10;;;10.10;99.90;;;;;;5099255;28;20193;-59
2021/05/08 08:41:17;;;;;;;9.55;2.28;;;10.10;99.90;;;;;;5096524;28;20539;-58
2021/05/08 08:43:45;;;;;;;11.93;2.28;;;9.90;99.90;;;;;;5101861;28;20629;-58
2021/05/08 08:46:11;;;;;;;5.72;1.88;;;9.90;99.90;;;;;;5097758;28;20534;-59
2021/05/08 08:48:39;;;;;;;11.32;2.58;;;10.10;99.90;;;;;;5095137;28;20192;-58
2021/05/08 08:51:05;;;;;;;7.95;2.10;;;10.40;99.90;;;;;;5094851;28;20184;-58
2021/05/08 08:53:31;;;;;;;10.80;2.22;;;10.70;99.90;;;;;;5094507;28;20576;-57
2021/05/08 08:55:58;;;;;;;6.72;2.30;;;11.80;99.90;;;;;;5076475;28;20170;-56
2021/05/08 08:58:32;;;;;;;9.98;2.30;;;11.90;99.90;;;;;;5097545;28;20197;-56
2021/05/08 09:00:59;;;;;;;3.50;1.40;;;11.50;99.90;;;;;;5103907;28;20157;-57
2021/05/08 09:03:25;;;;;;;14.38;2.72;;;11.40;99.90;;;;;;5095685;27;20438;-56
2021/05/08 09:05:51;;;;;;;8.32;1.83;;;12.20;99.90;;;;;;5094228;28;20573;-55
2021/05/08 09:08:17;;;;;;;6.03;1.90;;;14.00;99.90;;;;;;5094947;28;20645;-56
2021/05/08 09:10:43;;;;;;;7.43;2.20;;;14.40;99.90;;;;;;5095165;28;20176;-57
2021/05/08 09:13:17;;;;;;;7.85;2.40;;;15.50;99.90;;;;;;5103071;28;20201;-58
2021/05/08 09:15:45;;;;;;;10.93;1.95;;;13.80;99.90;;;;;;5089758;28;20192;-55
2021/05/08 09:18:34;;;;;;;144.23;35.15;;;13.30;99.90;;;;;;5093118;28;20165;-56
2021/05/08 09:21:00;;;;;;;7.15;1.92;;;13.70;99.90;;;;;;5093109;28;20410;-55
2021/05/08 09:23:41;;;;;;;4.32;1.55;;;13.00;99.90;;;;;;5093177;28;20637;-56
2021/05/08 09:26:10;;;;;;;6.78;1.63;;;12.10;99.90;;;;;;5093123;28;20783;-56
2021/05/08 09:28:38;;;;;;;4.07;1.73;;;12.30;99.90;;;;;;5092158;28;20193;-55
2021/05/08 09:31:05;;;;;;;11.57;2.10;;;12.10;99.90;;;;;;5094740;28;20193;-57
2021/05/08 09:33:32;;;;;;;7.18;1.88;;;11.20;99.90;;;;;;5093965;28;20209;-57
2021/05/08 09:36:06;;;;;;;8.40;1.80;;;10.50;99.90;;;;;;5092764;28;20221;-56
2021/05/08 09:38:39;;;;;;;4.38;1.73;;;11.40;99.90;;;;;;5082482;28;20180;-56
2021/05/08 09:41:13;;;;;;;9.05;2.05;;;11.70;99.90;;;;;;5090857;28;20184;-51
2021/05/08 09:43:39;;;;;;;12.90;2.50;;;12.20;99.90;;;;;;5092522;28;20180;-57
2021/05/08 09:46:06;;;;;;;3.80;1.45;;;12.60;99.90;;;;;;5095250;28;20176;-56
2021/05/08 09:48:36;;;;;;;6.40;1.80;;;12.20;99.90;;;;;;5100689;28;20177;-56
2021/05/08 09:51:20;;;;;;;6.53;2.10;;;11.80;99.90;;;;;;5095117;28;20204;-55
2021/05/08 09:53:46;;;;;;;2.97;1.25;;;11.90;99.90;;;;;;5093138;28;20213;-53
2021/05/08 09:56:35;;;;;;;7.10;1.75;;;12.00;99.90;;;;;;5093524;28;20528;-57
2021/05/08 09:59:38;;;;;;;11.50;1.83;;;11.50;99.90;;;;;;5091383;28;20185;-55
2021/05/08 10:02:05;;;;;;;6.38;1.73;;;11.20;99.90;;;;;;5092700;28;20951;-55
2021/05/08 10:04:35;;;;;;;7.22;1.77;;;11.10;99.90;;;;;;5094107;28;20184;-56
2021/05/08 10:07:07;;;;;;;7.38;2.22;;;11.60;99.90;;;;;;5103075;28;20169;-55
2021/05/08 10:09:33;;;;;;;7.97;1.98;;;13.00;99.90;;;;;;5088179;28;20182;-56
2021/05/08 10:12:00;;;;;;;7.85;2.35;;;12.80;99.90;;;;;;5093548;28;20553;-54
2021/05/08 10:14:27;;;;;;;11.85;2.10;;;13.10;99.90;;;;;;5074937;28;20205;-55
2021/05/08 10:16:53;;;;;;;9.32;1.98;;;13.20;99.90;;;;;;5092149;28;20174;-53
2021/05/08 10:19:19;;;;;;;7.45;1.85;;;13.30;99.90;;;;;;5091444;28;20182;-55
2021/05/08 10:21:45;;;;;;;4.95;1.50;;;13.80;99.90;;;;;;5092802;28;20185;-55
2021/05/08 10:24:11;;;;;;;6.70;1.83;;;13.10;99.90;;;;;;5092558;28;20180;-56
2021/05/08 10:26:37;;;;;;;10.93;1.60;;;12.90;99.90;;;;;;5073730;28;20193;-54
2021/05/08 10:29:03;;;;;;;7.75;2.13;;;12.50;99.90;;;;;;5089028;28;20184;-54
2021/05/08 10:31:29;;;;;;;7.95;1.70;;;11.80;99.90;;;;;;5063518;28;20173;-56
2021/05/08 10:33:55;;;;;;;6.60;1.80;;;12.50;99.90;;;;;;5081501;28;20201;-55
2021/05/08 10:36:48;;;;;;;6.03;1.73;;;13.20;99.90;;;;;;5072481;28;20696;-54
2021/05/08 10:39:14;;;;;;;7.57;2.25;;;15.30;99.90;;;;;;5090927;28;20216;-53
2021/05/08 10:41:52;;;;;;;8.48;2.00;;;15.70;99.80;;;;;;5092219;28;20177;-51
2021/05/08 10:44:44;;;;;;;10.10;2.05;;;16.10;99.60;;;;;;5091281;28;20177;-52
2021/05/08 10:47:14;;;;;;;6.63;2.00;;;17.30;97.60;;;;;;5090552;28;20296;-53
2021/05/08 10:49:41;;;;;;;6.43;2.30;;;17.40;96.20;;;;;;5090744;28;20173;-51
2021/05/08 10:52:07;;;;;;;16.10;3.00;;;18.20;95.10;;;;;;5090831;28;20644;-51
2021/05/08 10:54:39;;;;;;;11.00;2.60;;;17.50;95.70;;;;;;5090615;28;20205;-50
2021/05/08 10:57:16;;;;;;;9.77;2.20;;;16.80;97.60;;;;;;5092715;28;20172;-54
2021/05/08 11:00:09;;;;;;;10.15;2.65;;;17.10;96.00;;;;;;5090793;28;20185;-54
2021/05/08 11:02:58;;;;;;;12.07;2.95;;;14.50;98.30;;;;;;5091574;28;20188;-56
2021/05/08 11:05:31;;;;;;;8.02;3.05;;;13.50;99.90;;;;;;5088963;28;20173;-54
2021/05/08 11:07:57;;;;;;;12.65;3.70;;;13.50;99.90;;;;;;5092521;28;20173;-51
2021/05/08 11:10:35;;;;;;;15.60;3.83;;;14.70;99.90;;;;;;5092824;28;20656;-53
2021/05/08 11:13:08;;;;;;;9.80;3.40;;;14.70;99.90;;;;;;5092029;28;20188;-50
2021/05/08 11:18:33;;;;;;;8.43;2.85;;;17.20;98.20;;;;;;5091724;28;20169;-49
2021/05/08 11:21:00;;;;;;;7.85;3.15;;;16.80;97.80;;;;;;5091271;28;20208;-53
2021/05/08 11:23:27;;;;;;;12.55;2.97;;;15.20;98.10;;;;;;5088490;28;20173;-54
2021/05/08 11:25:53;;;;;;;9.23;2.80;;;17.40;97.40;;;;;;5067465;28;20669;-55
2021/05/08 11:28:19;;;;;;;11.43;2.80;;;18.50;97.10;;;;;;5080517;28;20623;-52
2021/05/08 11:30:55;;;;;;;6.85;2.90;;;19.10;93.90;;;;;;5080349;28;20185;-54
2021/05/08 11:33:21;;;;;;;8.52;3.30;;;17.80;93.40;;;;;;5084319;28;20169;-57
2021/05/08 11:36:03;;;;;;;10.13;3.00;;;15.00;98.60;;;;;;5087261;28;20216;-56
2021/05/08 11:38:30;;;;;;;10.82;3.30;;;15.20;99.80;;;;;;5095786;28;20170;-52
2021/05/08 11:40:56;;;;;;;12.38;3.53;;;15.60;98.50;;;;;;5097154;28;20182;-51
2021/05/08 11:43:27;;;;;;;12.77;3.40;;;16.70;98.80;;;;;;5092909;28;20514;-52
2021/05/08 11:45:56;;;;;;;12.80;3.08;;;15.40;99.70;;;;;;5083652;28;20166;-60
2021/05/08 11:48:22;;;;;;;10.38;2.70;;;16.40;98.40;;;;;;5092573;28;20180;-48
2021/05/08 11:50:48;;;;;;;12.93;3.20;;;17.80;95.40;;;;;;5092867;28;20180;-52
2021/05/08 11:53:18;;;;;;;12.00;3.03;;;17.30;94.60;;;;;;5073811;28;20184;-49
2021/05/08 11:55:45;;;;;;;8.18;2.85;;;16.40;95.50;;;;;;5095524;28;20533;-49
2021/05/08 11:58:11;;;;;;;9.10;2.80;;;17.90;95.30;;;;;;5092960;28;20184;-50
2021/05/08 12:00:37;;;;;;;11.50;2.67;;;17.00;94.70;;;;;;5094017;28;20200;-50
2021/05/08 12:03:16;;;;;;;5.95;2.20;;;18.00;95.00;;;;;;5092122;28;20173;-50
2021/05/08 12:05:43;;;;;;;8.10;2.55;;;16.60;94.70;;;;;;5084293;28;20516;-55
2021/05/08 12:08:09;;;;;;;5.72;2.40;;;16.80;90.50;;;;;;5073895;28;20182;-61
2021/05/08 12:10:37;;;;;;;5.60;2.10;;;16.30;93.80;;;;;;5091815;28;20177;-52
2021/05/08 12:13:03;;;;;;;9.75;2.80;;;13.60;94.60;;;;;;5093368;28;20195;-49
2021/05/08 12:15:30;;;;;;;8.68;2.65;;;13.10;98.90;;;;;;5093044;28;20213;-54
2021/05/08 12:18:00;;;;;;;8.18;2.15;;;14.60;96.30;;;;;;5096168;28;20542;-56
2021/05/08 12:20:46;;;;;;;7.07;2.30;;;14.10;93.60;;;;;;5098512;28;20692;-56
2021/05/08 12:23:22;;;;;;;8.23;2.42;;;13.30;96.20;;;;;;5074930;28;20201;-55
2021/05/08 12:26:14;;;;;;;8.73;2.05;;;14.40;93.70;;;;;;5090385;28;20197;-56
2021/05/08 12:28:43;;;;;;;4.57;2.13;;;14.60;94.30;;;;;;5095469;28;20189;-56
2021/05/08 12:31:24;;;;;;;8.77;2.05;;;15.30;93.70;;;;;;5095307;28;20177;-55
2021/05/08 12:33:51;;;;;;;11.40;2.30;;;15.30;92.20;;;;;;5094675;28;20208;-56
2021/05/08 12:36:19;;;;;;;6.60;1.90;;;14.80;93.60;;;;;;5095127;28;20213;-55
2021/05/08 12:38:46;;;;;;;5.75;1.50;;;14.00;92.90;;;;;;5092333;28;20192;-54
2021/05/08 12:41:28;;;;;;;4.68;1.30;;;13.40;92.00;;;;;;5094753;28;20176;-52
2021/05/08 12:44:27;;;;;;;7.65;1.90;;;13.20;91.40;;;;;;5094621;28;20173;-55
2021/05/08 12:47:18;;;;;;;9.27;2.20;;;12.70;96.80;;;;;;5089398;28;20260;-54
2021/05/08 12:50:03;;;;;;;7.00;2.22;;;13.40;98.70;;;;;;5094654;28;20502;-56
2021/05/08 12:52:29;;;;;;;12.88;2.70;;;13.90;97.40;;;;;;5096270;28;20165;-53
2021/05/08 12:54:56;;;;;;;5.97;2.10;;;13.70;98.50;;;;;;5095682;28;20564;-52